Time;durP1;ratioP1;P1;durP2;ratioP2;P2;SDS_P1;SDS_P2;PMS_P1;PMS_P2;Temp;Humidity;BMP_temperature;BMP_pressure;BME280_temperature;BME280_humidity;BME280_pressure;Samples;Min_cycle;Max_cycle;Signal;HPM_P1;HPM_P2
2020/12/01 00:00:47;;;;;;;;;;;;;;;21.95;41.83;102039.47;3111460;28;114795;-61
2020/12/01 00:02:18;;;;;;;;;;;;;;;21.96;41.69;102041.16;3120304;27;114331;-61
2020/12/01 00:03:49;;;;;;;;;;;;;;;21.98;41.42;102040.88;3109285;28;115206;-61
2020/12/01 00:05:22;;;;;;;;;;;;;;;21.97;41.50;102044.81;3109455;28;114202;-61
2020/12/01 00:06:53;;;;;;;;;;;;;;;21.97;41.83;102037.22;3110401;28;114382;-61
2020/12/01 00:08:24;;;;;;;;;;;;;;;21.97;41.68;102037.22;3110351;27;113788;-61
2020/12/01 00:09:55;;;;;;;;;;;;;;;21.97;41.57;102031.59;3111026;27;113990;-58
2020/12/01 00:11:27;;;;;;;;;;;;;;;21.98;41.80;102038.91;3117236;27;114866;-58
2020/12/01 00:12:58;;;;;;;;;;;;;;;21.97;41.90;102040.03;3120493;27;113794;-58
2020/12/01 00:14:29;;;;;;;;;;;;;;;21.96;41.70;102032.72;3122653;27;115052;-58
2020/12/01 00:16:00;;;;;;;;;;;;;;;21.96;41.89;102035.53;3122844;27;115013;-58
2020/12/01 00:17:31;;;;;;;;;;;;;;;21.95;41.88;102038.63;3122225;27;113781;-60
2020/12/01 00:19:03;;;;;;;;;;;;;;;21.96;41.95;102037.50;3122885;27;113876;-60
2020/12/01 00:20:34;;;;;;;;;;;;;;;21.95;41.75;102038.63;3123876;27;114063;-60
2020/12/01 00:22:05;;;;;;;;;;;;;;;21.96;41.90;102048.78;3126051;27;114161;-59
2020/12/01 00:23:36;;;;;;;;;;;;;;;21.94;41.89;102040.59;3122299;27;114291;-60
2020/12/01 00:25:08;;;;;;;;;;;;;;;21.95;42.57;102041.44;3122828;27;116457;-60
2020/12/01 00:26:39;;;;;;;;;;;;;;;21.94;42.50;102040.59;3121569;27;114965;-59
2020/12/01 00:28:10;;;;;;;;;;;;;;;21.94;42.79;102045.41;3115051;27;115556;-61
2020/12/01 00:29:42;;;;;;;;;;;;;;;21.92;42.49;102044.81;3123062;27;116901;-57
2020/12/01 00:31:13;;;;;;;;;;;;;;;21.91;42.48;102037.50;3133893;27;115314;-57
2020/12/01 00:32:45;;;;;;;;;;;;;;;21.91;42.57;102043.13;3125645;27;115193;-57
2020/12/01 00:34:16;;;;;;;;;;;;;;;21.89;42.47;102039.78;3121333;27;114919;-57
2020/12/01 00:35:48;;;;;;;;;;;;;;;21.89;42.60;102049.06;3121836;27;113804;-57
2020/12/01 00:37:19;;;;;;;;;;;;;;;21.87;42.62;102037.25;3122867;27;114205;-57
2020/12/01 00:38:50;;;;;;;;;;;;;;;21.87;42.38;102033.59;3122493;27;115384;-57
2020/12/01 00:40:21;;;;;;;;;;;;;;;21.87;42.39;102036.41;3123694;27;114645;-58
2020/12/01 00:41:56;;;;;;;;;;;;;;;21.86;42.36;102037.53;3123869;27;114995;-58
2020/12/01 00:43:27;;;;;;;;;;;;;;;21.84;42.51;102032.22;3127538;27;117392;-57
2020/12/01 00:44:58;;;;;;;;;;;;;;;21.84;42.55;102034.19;3119809;27;116707;-57
2020/12/01 00:46:29;;;;;;;;;;;;;;;21.83;42.37;102038.97;3122537;27;117690;-60
2020/12/01 00:48:01;;;;;;;;;;;;;;;21.81;42.70;102035.59;3122205;27;115803;-60
2020/12/01 00:49:32;;;;;;;;;;;;;;;21.81;42.30;102029.97;3134790;27;115952;-61
2020/12/01 00:51:03;;;;;;;;;;;;;;;21.80;42.58;102033.09;3125137;27;114791;-64
2020/12/01 00:52:34;;;;;;;;;;;;;;;21.80;42.51;102027.47;3119104;27;115879;-60
2020/12/01 00:54:05;;;;;;;;;;;;;;;21.79;42.30;102034.22;3123003;27;116424;-60
2020/12/01 00:55:37;;;;;;;;;;;;;;;21.77;42.48;102034.50;3121200;27;114519;-60
2020/12/01 00:57:08;;;;;;;;;;;;;;;21.77;42.75;102037.31;3119899;27;114592;-60
2020/12/01 00:58:39;;;;;;;;;;;;;;;21.76;42.39;102043.25;3121629;27;115980;-60
2020/12/01 01:00:14;;;;;;;;;;;;;;;21.74;42.40;102041.56;3121587;27;114392;-61
2020/12/01 01:01:45;;;;;;;;;;;;;;;21.73;42.85;102042.69;3121250;27;116071;-60
2020/12/01 01:03:16;;;;;;;;;;;;;;;21.73;42.68;102045.50;3121044;27;114613;-59
2020/12/01 01:04:47;;;;;;;;;;;;;;;21.73;42.38;102047.47;3125448;27;115307;-59
2020/12/01 01:06:19;;;;;;;;;;;;;;;21.70;42.82;102048.91;3122425;27;113891;-59
2020/12/01 01:07:50;;;;;;;;;;;;;;;21.69;43.00;102058.47;3122085;27;113874;-59
2020/12/01 01:09:21;;;;;;;;;;;;;;;21.69;42.97;102055.66;3123346;27;114568;-59
2020/12/01 01:10:53;;;;;;;;;;;;;;;21.69;42.75;102054.81;3127180;27;114179;-60
2020/12/01 01:12:24;;;;;;;;;;;;;;;21.67;42.95;102060.72;3132520;27;114067;-60
2020/12/01 01:13:56;;;;;;;;;;;;;;;21.67;43.00;102052.28;3132986;27;114059;-59
2020/12/01 01:15:29;;;;;;;;;;;;;;;21.65;43.27;102063.00;3135162;27;114432;-60
2020/12/01 01:17:01;;;;;;;;;;;;;;;21.64;43.11;102054.81;3120662;27;114636;-60
2020/12/01 01:18:32;;;;;;;;;;;;;;;21.63;43.27;102067.19;3121068;27;113966;-60
2020/12/01 01:20:06;;;;;;;;;;;;;;;21.62;42.93;102057.09;3131343;27;114041;-59
2020/12/01 01:21:42;;;;;;;;;;;;;;;21.59;43.45;102066.94;3133772;27;114615;-59
2020/12/01 01:23:14;;;;;;;;;;;;;;;21.59;43.07;102064.13;3120557;27;113927;-60
2020/12/01 01:24:45;;;;;;;;;;;;;;;21.58;43.39;102064.41;3130364;27;114166;-60
2020/12/01 01:26:16;;;;;;;;;;;;;;;21.58;43.63;102072.84;3120645;27;114092;-59
2020/12/01 01:27:48;;;;;;;;;;;;;;;21.55;43.46;102073.44;3129240;27;114012;-60
2020/12/01 01:29:20;;;;;;;;;;;;;;;21.54;43.45;102066.97;3120941;27;115381;-60
2020/12/01 01:30:51;;;;;;;;;;;;;;;21.53;43.63;102067.28;3130506;27;115335;-60
2020/12/01 01:32:22;;;;;;;;;;;;;;;21.50;43.94;102074.31;3133876;27;114138;-60
2020/12/01 01:33:53;;;;;;;;;;;;;;;21.50;43.84;102076.25;3134826;27;115308;-58
2020/12/01 01:35:24;;;;;;;;;;;;;;;21.49;43.90;102078.22;3135097;27;115989;-60
2020/12/01 01:36:56;;;;;;;;;;;;;;;21.47;43.82;102080.50;3134131;27;115109;-60
2020/12/01 01:38:27;;;;;;;;;;;;;;;21.46;44.20;102078.81;3120307;27;115725;-60
2020/12/01 01:40:00;;;;;;;;;;;;;;;21.45;44.28;102081.91;3130801;27;114943;-58
2020/12/01 01:41:33;;;;;;;;;;;;;;;21.44;44.08;102080.25;3133300;27;114259;-57
2020/12/01 01:43:04;;;;;;;;;;;;;;;21.42;44.38;102074.91;3133716;27;115162;-57
2020/12/01 01:44:36;;;;;;;;;;;;;;;21.42;44.51;102082.50;3133094;27;114036;-57
2020/12/01 01:46:39;;;;;;;;;;;;;;;21.41;44.21;102075.19;3134401;27;115194;-56
2020/12/01 01:48:16;;;;;;;;;;;;;;;21.39;44.27;102075.50;3097646;27;115137;-57
2020/12/01 01:49:58;;;;;;;;;;;;;;;21.37;44.26;102083.34;3134733;27;114579;-57
2020/12/01 01:51:30;;;;;;;;;;;;;;;21.35;44.70;102068.72;3134161;27;115734;-57
2020/12/01 01:53:02;;;;;;;;;;;;;;;21.34;44.15;102075.50;3134466;27;115487;-57
2020/12/01 01:54:33;;;;;;;;;;;;;;;21.34;44.31;102077.47;3121681;27;114897;-57
2020/12/01 01:56:06;;;;;;;;;;;;;;;21.33;44.06;102072.97;3129734;27;115984;-57
2020/12/01 01:57:37;;;;;;;;;;;;;;;21.31;44.12;102070.44;3133160;27;115056;-60
2020/12/01 01:59:11;;;;;;;;;;;;;;;21.29;44.29;102075.50;3134140;27;116113;-60
2020/12/01 02:00:56;;;;;;;;;;;;;;;21.28;44.10;102080.28;3134937;27;115862;-61
2020/12/01 02:02:28;;;;;;;;;;;;;;;21.27;43.93;102075.78;3117662;27;114643;-61
2020/12/01 02:04:04;;;;;;;;;;;;;;;21.25;43.74;102077.22;3130456;27;114990;-62
2020/12/01 02:05:35;;;;;;;;;;;;;;;21.23;43.91;102082.28;3133803;27;114680;-61
2020/12/01 02:07:06;;;;;;;;;;;;;;;21.22;43.79;102089.84;3133274;27;115634;-62
2020/12/01 02:08:38;;;;;;;;;;;;;;;21.21;43.92;102081.72;3134373;27;114673;-60
2020/12/01 02:10:09;;;;;;;;;;;;;;;21.19;44.06;102083.97;3133451;27;117745;-61
2020/12/01 02:11:41;;;;;;;;;;;;;;;21.18;43.87;102082.28;3135480;27;114073;-60
2020/12/01 02:13:14;;;;;;;;;;;;;;;21.16;44.04;102085.41;3120188;27;114164;-60
2020/12/01 02:14:47;;;;;;;;;;;;;;;21.14;43.73;102090.44;3130140;27;114255;-60
2020/12/01 02:16:18;;;;;;;;;;;;;;;21.13;44.10;102090.72;3120820;27;114147;-60
2020/12/01 02:17:50;;;;;;;;;;;;;;;21.13;43.66;102091.56;3129768;27;114189;-60
2020/12/01 02:19:23;;;;;;;;;;;;;;;21.12;44.11;102094.66;3120873;27;114041;-59
2020/12/01 02:20:54;;;;;;;;;;;;;;;21.10;44.14;102097.72;3130158;27;113714;-59
2020/12/01 02:22:28;;;;;;;;;;;;;;;21.08;44.04;102094.34;3133365;27;114367;-59
2020/12/01 02:24:01;;;;;;;;;;;;;;;21.06;43.85;102095.78;3133774;27;114080;-59
2020/12/01 02:25:33;;;;;;;;;;;;;;;21.05;43.92;102091.28;3134448;27;114457;-60
2020/12/01 02:27:04;;;;;;;;;;;;;;;21.02;43.78;102098.31;3133506;27;114145;-60
2020/12/01 02:28:35;;;;;;;;;;;;;;;21.01;44.11;102096.63;3133339;27;114804;-61
2020/12/01 02:30:11;;;;;;;;;;;;;;;20.99;43.93;102106.44;3134484;27;113978;-61
2020/12/01 02:31:42;;;;;;;;;;;;;;;20.96;43.84;102096.63;3133193;27;114169;-60
2020/12/01 02:33:14;;;;;;;;;;;;;;;20.94;44.10;102098.06;3137568;27;114324;-62
2020/12/01 02:34:46;;;;;;;;;;;;;;;20.93;44.17;102096.38;3125064;27;116103;-61
2020/12/01 02:36:18;;;;;;;;;;;;;;;20.94;43.86;102098.06;3107944;27;115850;-60
2020/12/01 02:37:49;;;;;;;;;;;;;;;20.91;44.04;102105.06;3113475;27;114967;-60
2020/12/01 02:39:22;;;;;;;;;;;;;;;20.91;43.82;102104.22;3130286;27;115300;-59
2020/12/01 02:40:53;;;;;;;;;;;;;;;20.88;43.75;102099.19;3135069;27;115252;-59
2020/12/01 02:42:27;;;;;;;;;;;;;;;20.85;43.86;102100.56;3131931;27;114842;-60
2020/12/01 02:43:58;;;;;;;;;;;;;;;20.84;43.83;102093.28;3133697;27;113957;-60
2020/12/01 02:45:29;;;;;;;;;;;;;;;20.82;43.89;102102.00;3134745;27;114209;-60
2020/12/01 02:47:02;;;;;;;;;;;;;;;20.81;43.48;102105.06;3133844;27;113860;-58
2020/12/01 02:48:33;;;;;;;;;;;;;;;20.79;43.98;102102.56;3132652;27;114610;-58
2020/12/01 02:50:04;;;;;;;;;;;;;;;20.77;43.90;102110.41;3134259;27;115029;-57
2020/12/01 02:51:37;;;;;;;;;;;;;;;20.75;43.98;102107.06;3133365;27;115150;-58
2020/12/01 02:53:08;;;;;;;;;;;;;;;20.74;44.06;102104.53;3134343;27;115333;-58
2020/12/01 02:54:40;;;;;;;;;;;;;;;20.74;43.84;102112.94;3138597;27;115153;-57
2020/12/01 02:56:13;;;;;;;;;;;;;;;20.74;44.14;102102.56;3119762;27;115955;-62
2020/12/01 02:57:44;;;;;;;;;;;;;;;20.72;43.18;102109.56;3129773;27;115560;-62
2020/12/01 02:59:15;;;;;;;;;;;;;;;20.67;42.45;102113.22;3136515;27;115972;-62
2020/12/01 03:00:47;;;;;;;;;;;;;;;20.66;42.16;102110.72;3136693;27;114770;-60
2020/12/01 03:02:18;;;;;;;;;;;;;;;20.65;43.04;102109.03;3135773;27;115638;-61
2020/12/01 03:03:49;;;;;;;;;;;;;;;20.64;43.44;102115.75;3135882;27;114718;-60
2020/12/01 03:05:21;;;;;;;;;;;;;;;20.63;43.29;102109.28;3136886;27;115879;-60
2020/12/01 03:06:52;;;;;;;;;;;;;;;20.62;43.60;102113.25;3135841;27;116167;-60
2020/12/01 03:08:23;;;;;;;;;;;;;;;20.60;43.24;102097.78;3133772;27;114419;-60
2020/12/01 03:09:54;;;;;;;;;;;;;;;20.60;43.49;102100.59;3135144;27;114469;-60
2020/12/01 03:11:25;;;;;;;;;;;;;;;20.58;43.36;102106.47;3135479;27;114690;-60
2020/12/01 03:12:57;;;;;;;;;;;;;;;20.56;43.72;102105.94;3127071;27;114662;-57
2020/12/01 03:14:28;;;;;;;;;;;;;;;20.58;43.50;102102.84;3135931;27;115321;-57
2020/12/01 03:16:04;;;;;;;;;;;;;;;20.55;43.53;102100.59;3136744;27;114532;-56
2020/12/01 03:17:39;;;;;;;;;;;;;;;20.52;43.39;102102.00;3122279;27;114557;-57
2020/12/01 03:19:11;;;;;;;;;;;;;;;20.54;43.67;102104.50;3131363;27;113837;-57
2020/12/01 03:20:42;;;;;;;;;;;;;;;20.54;43.61;102101.72;3135745;27;114139;-57
2020/12/01 03:22:13;;;;;;;;;;;;;;;20.52;43.46;102096.41;3121328;27;113884;-57
2020/12/01 03:23:44;;;;;;;;;;;;;;;20.51;43.61;102102.28;3129751;27;114121;-57
2020/12/01 03:25:16;;;;;;;;;;;;;;;20.49;43.50;102096.13;3132892;27;113916;-62
2020/12/01 03:26:47;;;;;;;;;;;;;;;20.49;43.40;102105.34;3135332;27;113980;-57
2020/12/01 03:28:18;;;;;;;;;;;;;;;20.46;43.71;102103.13;3135008;27;114247;-57
2020/12/01 03:29:49;;;;;;;;;;;;;;;20.46;43.74;102102.28;3136286;27;113831;-57
2020/12/01 03:31:21;;;;;;;;;;;;;;;20.44;43.41;102105.38;3135325;27;114174;-57
2020/12/01 03:32:52;;;;;;;;;;;;;;;20.42;43.70;102107.63;3135884;27;113988;-58
2020/12/01 03:34:23;;;;;;;;;;;;;;;20.42;43.71;102122.50;3137087;27;113982;-57
2020/12/01 03:35:55;;;;;;;;;;;;;;;20.41;43.61;102103.13;3113447;27;113879;-58
2020/12/01 03:37:26;;;;;;;;;;;;;;;20.42;43.78;102107.63;3125875;27;114399;-59
2020/12/01 03:38:57;;;;;;;;;;;;;;;20.39;43.79;102102.56;3130611;27;115041;-60
2020/12/01 03:40:28;;;;;;;;;;;;;;;20.38;43.96;102101.72;3123029;27;115257;-61
2020/12/01 03:41:59;;;;;;;;;;;;;;;20.38;43.70;102103.69;3124095;27;115063;-60
2020/12/01 03:43:31;;;;;;;;;;;;;;;20.35;43.93;102101.44;3123430;27;116775;-60
2020/12/01 03:45:03;;;;;;;;;;;;;;;20.35;43.87;102107.06;3136295;27;115167;-60
2020/12/01 03:46:34;;;;;;;;;;;;;;;20.34;43.97;102109.03;3122758;27;114035;-61
2020/12/01 03:48:05;;;;;;;;;;;;;;;20.32;44.02;102114.06;3134714;27;114386;-60
2020/12/01 03:49:36;;;;;;;;;;;;;;;20.32;43.86;102114.06;3136489;27;115083;-60
2020/12/01 03:51:08;;;;;;;;;;;;;;;20.33;43.87;102114.91;3136434;27;113967;-60
2020/12/01 03:52:39;;;;;;;;;;;;;;;20.33;44.15;102114.91;3134342;27;115309;-58
2020/12/01 03:54:10;;;;;;;;;;;;;;;20.30;44.05;102123.88;3122457;27;115019;-57
2020/12/01 03:55:41;;;;;;;;;;;;;;;20.28;43.90;102115.69;3131902;27;115183;-58
2020/12/01 03:57:13;;;;;;;;;;;;;;;20.26;44.01;102115.13;3133666;27;115469;-58
2020/12/01 03:58:44;;;;;;;;;;;;;;;20.25;43.93;102112.63;3135384;27;115236;-57
2020/12/01 04:00:18;;;;;;;;;;;;;;;20.25;43.99;102115.44;3126150;27;115519;-57
2020/12/01 04:01:50;;;;;;;;;;;;;;;20.23;43.97;102115.69;3130999;27;117519;-57
2020/12/01 04:03:21;;;;;;;;;;;;;;;20.24;44.06;102110.94;3121265;27;116071;-57
2020/12/01 04:04:52;;;;;;;;;;;;;;;20.21;44.10;102112.34;3129345;27;114453;-58
2020/12/01 04:06:24;;;;;;;;;;;;;;;20.21;44.39;102119.91;3135062;27;114710;-57
2020/12/01 04:07:56;;;;;;;;;;;;;;;20.20;44.14;102118.22;3135269;27;115168;-58
2020/12/01 04:09:27;;;;;;;;;;;;;;;20.20;44.19;102121.03;3131589;27;114645;-57
2020/12/01 04:11:00;;;;;;;;;;;;;;;20.20;44.55;102123.84;3120783;27;115118;-57
2020/12/01 04:12:32;;;;;;;;;;;;;;;20.18;44.21;102120.44;3128797;27;115191;-57
2020/12/01 04:14:03;;;;;;;;;;;;;;;20.15;44.35;102121.84;3134794;27;115329;-57
2020/12/01 04:15:34;;;;;;;;;;;;;;;20.16;44.35;102125.50;3122963;27;116754;-57
2020/12/01 04:17:05;;;;;;;;;;;;;;;20.13;44.48;102132.50;3130031;27;114729;-58
2020/12/01 04:18:37;;;;;;;;;;;;;;;20.14;44.45;102133.34;3134047;27;115559;-58
2020/12/01 04:20:08;;;;;;;;;;;;;;;20.14;44.40;102133.34;3135676;27;115186;-58
2020/12/01 04:21:39;;;;;;;;;;;;;;;20.12;44.29;102150.47;3129805;27;115057;-58
2020/12/01 04:23:11;;;;;;;;;;;;;;;20.11;44.60;102140.38;3135235;27;113859;-58
2020/12/01 04:24:42;;;;;;;;;;;;;;;20.11;44.60;102134.75;3122985;27;114158;-58
2020/12/01 04:26:13;;;;;;;;;;;;;;;20.09;44.43;102134.19;3129172;27;115743;-59
2020/12/01 04:27:45;;;;;;;;;;;;;;;20.08;44.52;102135.28;3130699;27;114621;-59
2020/12/01 04:29:16;;;;;;;;;;;;;;;20.08;44.48;102145.69;3134277;27;113866;-59
2020/12/01 04:30:48;;;;;;;;;;;;;;;20.06;44.59;102143.16;3135590;27;114605;-59
2020/12/01 04:32:19;;;;;;;;;;;;;;;20.06;44.52;102140.34;3134107;27;113963;-59
2020/12/01 04:33:50;;;;;;;;;;;;;;;20.04;44.47;102136.97;3134735;27;114268;-58
2020/12/01 04:35:23;;;;;;;;;;;;;;;20.04;44.60;102142.56;3122136;27;114226;-58
2020/12/01 04:36:55;;;;;;;;;;;;;;;20.03;44.53;102145.69;3120865;27;114330;-57
2020/12/01 04:38:27;;;;;;;;;;;;;;;20.02;44.76;102144.84;3118671;27;114336;-58
2020/12/01 04:39:58;;;;;;;;;;;;;;;20.02;44.40;102143.97;3117578;27;114193;-65
2020/12/01 04:41:29;;;;;;;;;;;;;;;20.00;44.47;102147.06;3129476;27;114889;-64
2020/12/01 04:43:03;;;;;;;;;;;;;;;20.02;44.70;102143.97;3134064;27;114149;-64
2020/12/01 04:44:35;;;;;;;;;;;;;;;19.98;44.47;102150.16;3122502;27;114101;-61
2020/12/01 04:46:11;;;;;;;;;;;;;;;19.98;44.47;102157.72;3131108;27;114062;-63
2020/12/01 04:47:58;;;;;;;;;;;;;;;19.96;44.52;102155.19;3133929;27;115357;-64
2020/12/01 04:49:34;;;;;;;;;;;;;;;19.95;44.41;102153.50;3134975;27;114181;-65
2020/12/01 04:51:11;;;;;;;;;;;;;;;19.96;44.70;102160.78;3133668;27;114609;-65
2020/12/01 04:52:42;;;;;;;;;;;;;;;19.94;44.31;102159.41;3132097;27;114439;-65
2020/12/01 04:54:16;;;;;;;;;;;;;;;19.93;44.88;102155.75;3135547;27;116515;-64
2020/12/01 04:56:01;;;;;;;;;;;;;;;19.91;44.58;102154.31;3133333;27;113977;-65
2020/12/01 04:57:51;;;;;;;;;;;;;;;19.91;44.66;102154.31;3131653;27;115263;-64
2020/12/01 04:59:22;;;;;;;;;;;;;;;19.89;44.64;102148.16;3133043;27;114558;-63
2020/12/01 05:01:02;;;;;;;;;;;;;;;19.89;44.72;102157.41;3135456;27;114865;-62
2020/12/01 05:02:37;;;;;;;;;;;;;;;19.88;44.55;102158.53;3107583;27;114520;-62
2020/12/01 05:04:14;;;;;;;;;;;;;;;19.87;44.57;102159.63;3126710;27;117093;-62
2020/12/01 05:07:56;;;;;;;;;;;;;;;19.86;44.71;102157.09;3136291;27;114132;-63
2020/12/01 05:09:51;;;;;;;;;;;;;;;19.85;44.48;102166.66;3133679;27;114924;-64
2020/12/01 05:11:32;;;;;;;;;;;;;;;19.83;44.76;102160.47;3133421;27;115292;-63
2020/12/01 05:13:18;;;;;;;;;;;;;;;19.84;44.61;102159.34;3133020;27;115626;-63
2020/12/01 05:15:02;;;;;;;;;;;;;;;19.82;44.52;102164.38;3132324;27;114740;-63
2020/12/01 05:16:53;;;;;;;;;;;;;;;19.80;44.87;102167.47;3132285;27;114780;-62
2020/12/01 05:18:27;;;;;;;;;;;;;;;19.80;44.74;102172.25;3119138;27;116091;-62
2020/12/01 05:19:58;;;;;;;;;;;;;;;19.78;44.55;102163.25;3129645;27;114740;-62
2020/12/01 05:21:29;;;;;;;;;;;;;;;19.77;44.64;102161.53;3120407;27;116167;-63
2020/12/01 05:23:01;;;;;;;;;;;;;;;19.77;44.62;102159.59;3129191;27;116974;-63
2020/12/01 05:24:36;;;;;;;;;;;;;;;19.79;44.52;102168.59;3135123;27;115124;-62
2020/12/01 05:26:10;;;;;;;;;;;;;;;19.76;44.61;102157.09;3131800;27;115627;-62
2020/12/01 05:27:44;;;;;;;;;;;;;;;19.74;44.86;102170.53;3132769;27;115241;-62
2020/12/01 05:29:25;;;;;;;;;;;;;;;19.74;44.85;102162.09;3120545;27;115414;-62
2020/12/01 05:31:01;;;;;;;;;;;;;;;19.74;44.82;102162.09;3134495;27;115449;-61
2020/12/01 05:32:38;;;;;;;;;;;;;;;19.74;44.73;102176.13;3133848;27;114742;-61
2020/12/01 05:34:16;;;;;;;;;;;;;;;19.70;44.83;102181.44;3133280;27;113808;-61
2020/12/01 05:35:57;;;;;;;;;;;;;;;19.70;44.70;102173.03;3133063;27;113835;-61
2020/12/01 05:37:28;;;;;;;;;;;;;;;19.70;44.92;102175.84;3130506;27;113980;-61
2020/12/01 05:39:04;;;;;;;;;;;;;;;19.73;44.86;102178.09;3134070;27;114218;-62
2020/12/01 05:40:35;;;;;;;;;;;;;;;19.78;45.04;102182.88;3134834;27;113739;-62
2020/12/01 05:42:16;;;;;;;;;;;;;;;19.80;44.91;102184.31;3132588;27;114358;-62
2020/12/01 05:43:53;;;;;;;;;;;;;;;19.84;45.08;102174.22;3133682;27;114228;-63
2020/12/01 05:45:28;;;;;;;;;;;;;;;19.87;45.19;102179.28;3132419;27;115441;-63
2020/12/01 05:47:10;;;;;;;;;;;;;;;19.90;45.14;102187.13;3133564;27;114188;-62
2020/12/01 05:48:41;;;;;;;;;;;;;;;19.95;45.25;102187.16;3134518;27;114235;-61
2020/12/01 05:50:24;;;;;;;;;;;;;;;19.99;45.08;102187.44;3134260;27;114417;-63
2020/12/01 05:52:05;;;;;;;;;;;;;;;20.04;45.39;102183.81;3132866;27;114738;-62
2020/12/01 05:53:36;;;;;;;;;;;;;;;20.07;45.60;102188.91;3137743;27;113845;-63
2020/12/01 05:55:23;;;;;;;;;;;;;;;20.11;45.41;102193.69;3134770;27;113958;-62
2020/12/01 05:56:54;;;;;;;;;;;;;;;20.15;45.33;102192.00;3131438;27;114062;-62
2020/12/01 05:58:38;;;;;;;;;;;;;;;20.20;45.12;102199.59;3131162;27;114082;-62
2020/12/01 06:00:19;;;;;;;;;;;;;;;20.25;45.13;102196.81;3116855;27;114462;-61
2020/12/01 06:01:53;;;;;;;;;;;;;;;20.29;45.25;102203.56;3128288;27;113918;-61
2020/12/01 06:03:48;;;;;;;;;;;;;;;20.34;44.95;102198.00;3133903;27;115393;-60
2020/12/01 06:05:22;;;;;;;;;;;;;;;20.38;44.67;102205.59;3133838;27;114376;-60
2020/12/01 06:06:53;;;;;;;;;;;;;;;20.43;45.02;102204.75;3133864;27;115283;-60
2020/12/01 06:08:41;;;;;;;;;;;;;;;20.47;44.84;102200.25;3120384;27;116083;-61
2020/12/01 06:10:17;;;;;;;;;;;;;;;20.52;44.50;102202.25;3131126;27;115449;-60
2020/12/01 06:11:53;;;;;;;;;;;;;;;20.56;44.47;102211.78;3118334;27;113726;-59
2020/12/01 06:13:30;;;;;;;;;;;;;;;20.60;44.58;102204.50;3120395;27;115091;-60
2020/12/01 06:15:11;;;;;;;;;;;;;;;20.65;44.22;102198.88;3121529;27;115779;-62
2020/12/01 06:16:49;;;;;;;;;;;;;;;20.68;44.72;102210.41;3124759;27;115977;-64
2020/12/01 06:18:25;;;;;;;;;;;;;;;20.72;44.42;102205.91;3120812;27;118784;-61
2020/12/01 06:20:01;;;;;;;;;;;;;;;20.75;44.13;102205.38;3121768;27;114439;-60
2020/12/01 06:21:52;;;;;;;;;;;;;;;20.79;44.08;102211.25;3120343;27;116217;-61
2020/12/01 06:23:26;;;;;;;;;;;;;;;20.82;44.16;102205.94;3119233;27;114477;-61
2020/12/01 06:25:06;;;;;;;;;;;;;;;20.85;44.13;102208.16;3121347;27;117970;-61
2020/12/01 06:26:38;;;;;;;;;;;;;;;20.90;43.99;102210.13;3119911;27;114623;-61
2020/12/01 06:28:10;;;;;;;;;;;;;;;20.93;43.95;102203.97;3120846;27;118508;-61
2020/12/01 06:29:46;;;;;;;;;;;;;;;20.96;43.90;102197.78;3121374;27;115413;-60
2020/12/01 06:31:33;;;;;;;;;;;;;;;21.01;43.63;102205.38;3119792;27;115900;-62
2020/12/01 06:33:24;;;;;;;;;;;;;;;21.03;44.13;102209.56;3119066;27;116056;-61
2020/12/01 06:35:15;;;;;;;;;;;;;;;21.06;44.06;102219.41;3121478;27;115680;-60
2020/12/01 06:36:58;;;;;;;;;;;;;;;21.10;44.05;102226.16;3120260;27;114523;-60
2020/12/01 06:38:42;;;;;;;;;;;;;;;21.13;43.81;102222.81;3123381;27;114869;-60
2020/12/01 06:40:48;;;;;;;;;;;;;;;21.15;43.86;102226.19;3124095;27;115176;-61
2020/12/01 06:42:27;;;;;;;;;;;;;;;21.18;43.83;102234.06;3105935;28;114594;-60
2020/12/01 06:43:59;;;;;;;;;;;;;;;21.21;43.83;102237.13;3089592;27;114384;-59
2020/12/01 06:45:34;;;;;;;;;;;;;;;21.24;43.40;102236.59;3123996;27;114464;-59
2020/12/01 06:47:06;;;;;;;;;;;;;;;21.28;43.63;102239.69;3122005;27;115046;-60
2020/12/01 06:48:44;;;;;;;;;;;;;;;21.29;43.86;102242.22;3123202;27;113982;-59
2020/12/01 06:50:18;;;;;;;;;;;;;;;21.33;43.62;102234.06;3120960;27;116135;-59
2020/12/01 06:51:51;;;;;;;;;;;;;;;21.36;43.88;102235.44;3123034;27;114321;-59
2020/12/01 06:53:24;;;;;;;;;;;;;;;21.40;43.87;102245.00;3124067;27;114415;-60
2020/12/01 06:54:57;;;;;;;;;;;;;;;21.43;43.56;102244.44;3124554;27;114407;-59
2020/12/01 06:56:28;;;;;;;;;;;;;;;21.44;43.21;102237.72;3123298;27;113977;-62
2020/12/01 06:58:06;;;;;;;;;;;;;;;21.46;43.15;102238.25;3121763;27;113905;-60
2020/12/01 06:59:44;;;;;;;;;;;;;;;21.49;43.66;102243.31;3121188;27;114977;-60
2020/12/01 07:01:25;;;;;;;;;;;;;;;21.50;43.66;102243.03;3122292;27;113896;-60
2020/12/01 07:03:06;;;;;;;;;;;;;;;21.53;43.35;102253.69;3113507;27;114627;-60
2020/12/01 07:04:38;;;;;;;;;;;;;;;21.56;43.13;102246.69;3125335;27;114644;-60
2020/12/01 07:06:16;;;;;;;;;;;;;;;21.58;43.06;102248.06;3115552;27;114342;-61
2020/12/01 07:07:47;;;;;;;;;;;;;;;21.60;42.93;102239.34;3118396;27;115100;-61
2020/12/01 07:09:27;;;;;;;;;;;;;;;21.62;43.23;102254.81;3123090;27;115423;-61
2020/12/01 07:11:04;;;;;;;;;;;;;;;21.66;43.18;102252.28;3128969;27;114507;-61
2020/12/01 07:13:06;;;;;;;;;;;;;;;;;;;;;
2020/12/01 07:14:57;;;;;;;;;;;;;;;21.70;43.08;102259.88;3133223;27;116168;-61
2020/12/01 07:16:31;;;;;;;;;;;;;;;21.73;42.99;102261.28;3135855;27;114294;-61
2020/12/01 07:18:04;;;;;;;;;;;;;;;21.76;42.90;102262.69;3113792;27;115032;-60
2020/12/01 07:19:35;;;;;;;;;;;;;;;21.77;42.63;102270.81;3121229;27;117243;-60
2020/12/01 07:21:20;;;;;;;;;;;;;;;21.80;42.79;102270.28;3131275;27;114000;-61
2020/12/01 07:23:05;;;;;;;;;;;;;;;21.82;42.63;102282.06;3118290;27;115074;-60
2020/12/01 07:24:36;;;;;;;;;;;;;;;21.84;42.53;102267.72;3133776;27;114120;-60
2020/12/01 07:26:26;;;;;;;;;;;;;;;21.85;42.61;102272.22;3121505;27;114307;-60
2020/12/01 07:28:10;;;;;;;;;;;;;;;21.90;42.54;102269.38;3137441;27;115228;-57
2020/12/01 07:30:00;;;;;;;;;;;;;;;21.89;42.41;102271.38;3121989;27;115856;-57
2020/12/01 07:31:33;;;;;;;;;;;;;;;21.93;42.60;102275.34;3133230;27;114814;-57
2020/12/01 07:33:06;;;;;;;;;;;;;;;21.97;42.87;102275.59;3133408;27;115381;-58
2020/12/01 07:34:38;;;;;;;;;;;;;;;21.97;42.32;102281.22;3136561;27;114501;-58
2020/12/01 07:36:29;;;;;;;;;;;;;;;21.99;42.38;102274.16;3136373;27;114571;-57
2020/12/01 07:38:09;;;;;;;;;;;;;;;22.02;42.33;102287.69;3130099;27;114551;-57
2020/12/01 07:39:53;;;;;;;;;;;;;;;22.03;42.38;102286.53;3136094;27;114577;-57
2020/12/01 07:41:26;;;;;;;;;;;;;;;22.05;42.17;102289.06;3120599;27;114708;-57
2020/12/01 07:42:59;;;;;;;;;;;;;;;22.06;42.45;102285.97;3115687;27;119034;-58
2020/12/01 07:44:31;;;;;;;;;;;;;;;22.08;42.59;102280.03;3130929;27;114563;-58
2020/12/01 07:46:03;;;;;;;;;;;;;;;22.12;42.71;102292.44;3137293;27;114292;-58
2020/12/01 07:47:34;;;;;;;;;;;;;;;22.13;42.29;102282.84;3135865;27;114920;-58
2020/12/01 07:49:08;;;;;;;;;;;;;;;22.14;42.58;102291.00;3134226;27;115116;-58
2020/12/01 07:50:39;;;;;;;;;;;;;;;22.17;42.13;102286.78;3126380;27;114554;-60
2020/12/01 07:52:13;;;;;;;;;;;;;;;22.18;42.23;102289.31;3117860;27;114184;-61
2020/12/01 07:53:44;;;;;;;;;;;;;;;22.20;42.27;102291.84;3117898;27;114087;-61
2020/12/01 07:55:19;;;;;;;;;;;;;;;22.22;42.27;102294.34;3132372;27;114270;-60
2020/12/01 07:56:50;;;;;;;;;;;;;;;22.24;42.18;102298.59;3133737;27;114230;-60
2020/12/01 07:58:25;;;;;;;;;;;;;;;22.25;42.24;102297.47;3109064;28;114185;-58
2020/12/01 07:59:58;;;;;;;;;;;;;;;22.26;41.92;102290.69;3119932;27;114084;-58
2020/12/01 08:01:32;;;;;;;;;;;;;;;22.29;41.77;102298.56;3115599;27;114514;-58